Time;durP1;ratioP1;P1;durP2;ratioP2;P2;SDS_P1;SDS_P2;PMS_P1;PMS_P2;Temp;Humidity;BMP_temperature;BMP_pressure;BME280_temperature;BME280_humidity;BME280_pressure;Samples;Min_cycle;Max_cycle;Signal;HPM_P1;HPM_P2
2021/11/19 00:00:57;;;;;;;14.70;14.10;;;19.90;91.50;;;;;;5032988;28;20450;-56
2021/11/19 00:03:26;;;;;;;13.30;12.90;;;19.90;91.50;;;;;;5032879;28;20448;-53
2021/11/19 00:05:53;;;;;;;13.20;12.80;;;19.80;91.70;;;;;;5032734;28;20445;-54
2021/11/19 00:08:25;;;;;;;13.73;13.33;;;19.80;91.70;;;;;;5031181;28;20485;-52
2021/11/19 00:10:52;;;;;;;13.40;13.00;;;19.80;91.80;;;;;;5012554;28;20504;-52
2021/11/19 00:13:19;;;;;;;14.47;13.97;;;19.80;91.90;;;;;;5012479;28;20446;-55
2021/11/19 00:15:46;;;;;;;12.83;12.43;;;19.80;91.90;;;;;;5012343;28;20484;-52
2021/11/19 00:18:13;;;;;;;13.03;12.53;;;19.80;92.00;;;;;;5012517;28;20461;-54
2021/11/19 00:20:41;;;;;;;14.17;13.63;;;19.70;92.10;;;;;;5012650;28;20450;-54
2021/11/19 00:23:08;;;;;;;14.37;13.87;;;19.80;92.10;;;;;;5012233;28;20454;-52
2021/11/19 00:25:35;;;;;;;14.33;13.73;;;19.70;92.10;;;;;;5021596;28;20441;-53
2021/11/19 00:28:03;;;;;;;14.40;13.80;;;19.70;92.10;;;;;;5032050;28;20496;-51
2021/11/19 00:30:32;;;;;;;15.00;14.30;;;19.70;92.10;;;;;;5031870;28;20449;-54
2021/11/19 00:32:59;;;;;;;13.13;12.70;;;19.70;92.50;;;;;;5032100;28;20456;-56
2021/11/19 00:35:26;;;;;;;14.40;13.90;;;19.70;92.30;;;;;;5031821;28;20449;-59
2021/11/19 00:37:57;;;;;;;15.23;14.43;;;19.70;92.20;;;;;;5031786;28;20465;-56
2021/11/19 00:40:28;;;;;;;13.90;13.40;;;19.70;92.30;;;;;;5031624;28;20445;-55
2021/11/19 00:42:55;;;;;;;13.87;13.47;;;19.70;92.40;;;;;;5031590;28;20460;-52
2021/11/19 00:45:24;;;;;;;14.53;14.03;;;19.70;92.40;;;;;;5031830;28;20460;-54
2021/11/19 00:47:51;;;;;;;13.70;13.30;;;19.70;92.40;;;;;;5031680;28;20487;-53
2021/11/19 00:50:18;;;;;;;13.43;12.83;;;19.60;92.40;;;;;;5032067;28;20450;-52
2021/11/19 00:52:45;;;;;;;14.00;13.50;;;19.60;92.40;;;;;;5032103;28;20968;-55
2021/11/19 00:55:13;;;;;;;14.27;13.77;;;19.60;92.40;;;;;;5031722;28;20445;-55
2021/11/19 00:57:42;;;;;;;14.20;13.80;;;19.60;92.60;;;;;;5031731;28;20461;-52
2021/11/19 01:00:12;;;;;;;14.87;14.20;;;19.60;92.60;;;;;;5031822;28;20515;-55
2021/11/19 01:02:38;;;;;;;13.20;12.80;;;19.60;92.60;;;;;;5032587;28;20449;-56
2021/11/19 01:05:06;;;;;;;13.70;13.10;;;19.60;92.70;;;;;;5032765;28;20468;-57
2021/11/19 01:07:33;;;;;;;15.00;14.40;;;19.60;92.90;;;;;;5032054;28;20488;-53
2021/11/19 01:10:06;;;;;;;14.77;14.17;;;19.50;92.90;;;;;;5031830;28;20456;-53
2021/11/19 01:12:35;;;;;;;15.33;14.63;;;19.50;92.90;;;;;;5032428;28;20449;-54
2021/11/19 01:15:05;;;;;;;12.67;12.20;;;19.40;93.10;;;;;;5032344;28;20464;-57
2021/11/19 01:17:36;;;;;;;14.30;13.80;;;19.40;93.40;;;;;;5032204;28;20468;-53
2021/11/19 01:20:10;;;;;;;14.00;13.50;;;19.40;93.60;;;;;;5033519;28;20866;-57
2021/11/19 01:22:40;;;;;;;14.03;13.53;;;19.40;93.80;;;;;;5036268;28;20876;-52
2021/11/19 01:25:13;;;;;;;15.53;14.90;;;19.40;93.80;;;;;;5036430;28;20452;-54
2021/11/19 01:27:41;;;;;;;13.77;13.30;;;19.40;93.90;;;;;;5036696;28;20488;-54
2021/11/19 01:30:10;;;;;;;14.40;13.90;;;19.40;94.20;;;;;;5035191;28;20456;-53
2021/11/19 01:32:37;;;;;;;14.10;13.60;;;19.40;94.10;;;;;;5036286;28;20452;-51
2021/11/19 01:35:04;;;;;;;13.57;13.17;;;19.40;94.60;;;;;;5036894;28;20553;-54
2021/11/19 01:37:31;;;;;;;14.27;13.77;;;19.40;94.30;;;;;;5036409;28;20821;-54
2021/11/19 01:39:58;;;;;;;13.03;12.60;;;19.30;94.30;;;;;;5035994;28;21032;-53
2021/11/19 01:42:28;;;;;;;14.37;13.87;;;19.30;94.50;;;;;;5036148;28;20828;-52
2021/11/19 01:45:01;;;;;;;14.53;14.03;;;19.30;94.60;;;;;;5036289;28;20453;-52
2021/11/19 01:47:29;;;;;;;13.23;12.83;;;19.30;94.70;;;;;;5036245;28;20856;-59
2021/11/19 01:49:57;;;;;;;14.50;14.00;;;19.30;94.70;;;;;;5036768;28;20445;-52
2021/11/19 01:52:29;;;;;;;13.50;13.10;;;19.30;94.80;;;;;;5036250;28;20491;-57
2021/11/19 01:54:59;;;;;;;13.80;13.33;;;19.30;94.90;;;;;;5035219;28;20445;-55
2021/11/19 01:57:29;;;;;;;14.30;13.80;;;19.30;95.10;;;;;;5034974;28;20833;-55
2021/11/19 02:00:02;;;;;;;12.83;12.37;;;19.30;95.10;;;;;;5034390;28;20452;-53
2021/11/19 02:02:34;;;;;;;14.47;13.97;;;19.30;95.10;;;;;;5035424;28;20456;-58
2021/11/19 02:05:10;;;;;;;14.30;13.80;;;19.30;95.20;;;;;;5034549;28;20449;-52
2021/11/19 02:07:44;;;;;;;13.87;13.37;;;19.30;95.40;;;;;;5034458;28;20491;-51
2021/11/19 02:10:19;;;;;;;13.40;13.00;;;19.30;95.50;;;;;;5034689;28;20449;-52
2021/11/19 02:13:03;;;;;;;13.40;13.00;;;19.30;95.40;;;;;;5034541;28;20457;-51
2021/11/19 02:15:35;;;;;;;13.90;13.20;;;19.30;95.40;;;;;;5034627;28;20827;-53
2021/11/19 02:18:07;;;;;;;13.77;13.37;;;19.30;95.50;;;;;;5034969;28;20473;-52
2021/11/19 02:20:37;;;;;;;13.73;13.23;;;19.30;95.70;;;;;;5035443;28;20440;-55
2021/11/19 02:23:10;;;;;;;13.70;13.30;;;19.20;96.00;;;;;;5035207;28;20453;-54
2021/11/19 02:25:41;;;;;;;14.07;13.53;;;19.30;95.70;;;;;;5035113;28;20445;-52
2021/11/19 02:28:10;;;;;;;13.80;13.40;;;19.20;95.90;;;;;;5035033;28;20496;-53
2021/11/19 02:30:54;;;;;;;13.40;13.00;;;19.20;95.90;;;;;;5035139;28;20492;-57
2021/11/19 02:33:22;;;;;;;13.70;13.30;;;19.20;96.00;;;;;;5034551;28;20511;-52
2021/11/19 02:35:54;;;;;;;13.20;12.80;;;19.20;96.00;;;;;;5035240;28;20441;-57
2021/11/19 02:38:26;;;;;;;14.43;13.93;;;19.20;95.90;;;;;;5035350;28;20472;-55
2021/11/19 02:40:53;;;;;;;14.50;13.83;;;19.20;96.10;;;;;;5035100;28;20456;-50
2021/11/19 02:43:24;;;;;;;13.83;13.30;;;19.10;96.10;;;;;;5035157;28;20445;-52
2021/11/19 02:45:55;;;;;;;14.30;13.90;;;19.10;96.20;;;;;;5035014;28;20441;-53
2021/11/19 02:48:25;;;;;;;14.27;13.67;;;19.20;96.30;;;;;;5034177;28;20909;-51
2021/11/19 02:50:55;;;;;;;13.60;13.20;;;19.20;96.30;;;;;;5035022;28;20966;-53
2021/11/19 02:53:23;;;;;;;14.90;14.27;;;19.20;96.50;;;;;;5035103;28;20460;-52
2021/11/19 02:55:52;;;;;;;13.30;12.90;;;19.10;96.50;;;;;;5034502;28;20445;-53
2021/11/19 02:58:22;;;;;;;14.50;14.00;;;19.20;96.50;;;;;;5034931;28;20468;-53
2021/11/19 03:00:52;;;;;;;13.60;13.13;;;19.20;96.50;;;;;;5035121;28;20460;-52
2021/11/19 03:03:20;;;;;;;14.47;13.97;;;19.10;96.50;;;;;;5035127;28;20454;-52
2021/11/19 03:05:47;;;;;;;14.97;14.40;;;19.20;96.60;;;;;;5034325;28;20441;-54
2021/11/19 03:08:14;;;;;;;13.83;13.33;;;19.10;96.50;;;;;;5035078;28;20485;-54
2021/11/19 03:10:44;;;;;;;13.33;12.93;;;19.20;96.50;;;;;;5035440;28;20862;-59
2021/11/19 03:13:13;;;;;;;13.97;13.50;;;19.10;96.50;;;;;;5034819;28;20827;-57
2021/11/19 03:15:44;;;;;;;14.33;13.83;;;19.10;96.70;;;;;;5034572;28;20444;-56
2021/11/19 03:18:13;;;;;;;14.40;13.80;;;19.10;96.80;;;;;;5035245;28;20469;-54
2021/11/19 03:20:42;;;;;;;13.00;12.60;;;19.10;97.10;;;;;;5034928;28;20457;-51
2021/11/19 03:23:10;;;;;;;13.03;12.63;;;19.10;97.10;;;;;;5035041;28;20445;-50
2021/11/19 03:25:39;;;;;;;14.20;13.70;;;19.20;97.20;;;;;;5035219;28;20449;-51
2021/11/19 03:28:07;;;;;;;13.27;12.77;;;19.20;97.10;;;;;;5034925;28;20556;-52
2021/11/19 03:30:35;;;;;;;14.67;14.00;;;19.20;97.10;;;;;;5035018;28;20453;-52
2021/11/19 03:33:03;;;;;;;14.07;13.57;;;19.20;97.10;;;;;;5035352;28;20460;-54
2021/11/19 03:35:31;;;;;;;14.27;13.80;;;19.20;97.30;;;;;;5035286;28;20448;-52
2021/11/19 03:38:00;;;;;;;14.80;14.20;;;19.20;97.50;;;;;;5034852;28;20469;-52
2021/11/19 03:40:30;;;;;;;13.80;13.30;;;19.10;97.40;;;;;;5035025;28;20457;-53
2021/11/19 03:42:59;;;;;;;13.57;13.17;;;19.10;97.60;;;;;;5034660;28;20800;-52
2021/11/19 03:45:30;;;;;;;14.70;14.20;;;19.10;97.60;;;;;;5035403;28;20456;-53
2021/11/19 03:47:57;;;;;;;13.70;13.30;;;19.10;97.70;;;;;;5034909;28;20489;-52
2021/11/19 03:50:27;;;;;;;13.60;13.20;;;19.10;97.60;;;;;;5035367;28;20445;-58
2021/11/19 03:52:54;;;;;;;13.43;13.03;;;19.10;97.80;;;;;;5033591;28;20805;-54
2021/11/19 03:55:25;;;;;;;13.93;13.53;;;19.00;98.00;;;;;;5034623;28;20441;-54
2021/11/19 03:57:51;;;;;;;15.03;14.43;;;19.10;98.30;;;;;;5034582;28;20465;-54
2021/11/19 04:00:22;;;;;;;14.30;13.80;;;19.00;98.80;;;;;;5033814;28;20444;-56
2021/11/19 04:02:50;;;;;;;13.27;12.83;;;19.00;99.20;;;;;;5034761;28;20449;-59
2021/11/19 04:05:17;;;;;;;12.83;12.43;;;18.90;99.90;;;;;;5034614;28;20453;-51
2021/11/19 04:07:44;;;;;;;12.40;12.00;;;18.90;99.90;;;;;;5034332;28;20496;-54
2021/11/19 04:10:11;;;;;;;13.20;12.80;;;18.90;99.90;;;;;;5033671;28;20503;-51
2021/11/19 04:12:40;;;;;;;13.27;12.80;;;18.90;99.90;;;;;;5034463;28;20441;-54
2021/11/19 04:15:10;;;;;;;13.47;12.90;;;19.00;99.90;;;;;;5034274;28;20456;-52
2021/11/19 04:17:37;;;;;;;14.03;13.60;;;19.00;99.90;;;;;;5034435;28;20962;-55
2021/11/19 04:20:05;;;;;;;14.03;13.53;;;19.10;99.90;;;;;;5033921;28;20453;-51
2021/11/19 04:22:32;;;;;;;13.90;13.40;;;19.00;99.90;;;;;;5014777;28;20450;-56
2021/11/19 04:25:04;;;;;;;12.90;12.40;;;19.00;99.90;;;;;;5014987;28;20449;-52
2021/11/19 04:27:32;;;;;;;13.00;12.60;;;18.90;99.90;;;;;;5015099;28;20482;-54
2021/11/19 04:30:01;;;;;;;12.77;12.33;;;18.90;99.90;;;;;;5015132;28;20457;-53
2021/11/19 04:32:28;;;;;;;13.53;12.83;;;18.90;99.90;;;;;;5015303;28;20481;-52
2021/11/19 04:34:56;;;;;;;13.07;12.60;;;19.00;99.90;;;;;;5015223;28;20454;-54
2021/11/19 04:37:23;;;;;;;12.33;11.83;;;19.00;99.90;;;;;;5030923;28;20573;-53
2021/11/19 04:39:50;;;;;;;13.40;12.90;;;18.90;99.90;;;;;;5034871;28;20448;-54
2021/11/19 04:42:17;;;;;;;14.23;13.67;;;19.00;99.90;;;;;;5035088;28;20453;-51
2021/11/19 04:44:44;;;;;;;12.50;12.10;;;19.00;99.90;;;;;;5034865;28;20441;-51
2021/11/19 04:47:13;;;;;;;13.37;12.83;;;19.00;99.90;;;;;;5034895;28;20480;-52
2021/11/19 04:49:39;;;;;;;13.10;12.70;;;18.90;99.90;;;;;;5035204;28;20480;-52
2021/11/19 04:52:09;;;;;;;13.40;13.00;;;18.90;99.90;;;;;;5035098;28;20448;-55
2021/11/19 04:54:36;;;;;;;13.00;12.60;;;19.00;99.90;;;;;;5035727;28;20814;-54
2021/11/19 04:57:04;;;;;;;13.77;13.07;;;18.90;99.90;;;;;;5039132;28;21032;-51
2021/11/19 04:59:31;;;;;;;13.00;12.60;;;18.90;99.90;;;;;;5039004;28;20528;-53
2021/11/19 05:02:01;;;;;;;13.77;13.27;;;18.90;99.90;;;;;;5038855;28;20953;-52
2021/11/19 05:04:30;;;;;;;13.57;13.13;;;18.90;99.90;;;;;;5038653;28;20957;-51
2021/11/19 05:06:56;;;;;;;14.40;13.90;;;18.90;99.90;;;;;;5038507;28;20465;-54
2021/11/19 05:09:23;;;;;;;12.97;12.57;;;18.90;99.90;;;;;;5036008;28;20489;-52
2021/11/19 05:11:54;;;;;;;13.97;13.40;;;19.00;99.90;;;;;;5036742;28;21053;-51
2021/11/19 05:14:21;;;;;;;14.07;13.50;;;19.20;99.90;;;;;;5036671;28;20464;-51
2021/11/19 05:16:49;;;;;;;13.40;13.00;;;19.10;99.90;;;;;;5036147;28;20469;-52
2021/11/19 05:19:16;;;;;;;14.60;14.10;;;19.10;99.90;;;;;;5036217;28;20445;-51
2021/11/19 05:21:45;;;;;;;14.27;13.77;;;19.30;99.90;;;;;;5036602;28;20452;-57
2021/11/19 05:24:12;;;;;;;14.33;13.93;;;19.30;99.90;;;;;;5036613;28;20445;-50
2021/11/19 05:26:42;;;;;;;12.80;12.43;;;19.40;99.90;;;;;;5036105;28;20484;-54
2021/11/19 05:29:08;;;;;;;13.93;13.43;;;19.50;99.90;;;;;;5016640;28;20999;-52
2021/11/19 05:31:37;;;;;;;14.00;13.50;;;19.50;99.90;;;;;;5017149;28;20877;-52
2021/11/19 05:34:05;;;;;;;14.60;14.10;;;19.50;99.90;;;;;;5016970;28;20438;-51
2021/11/19 05:36:32;;;;;;;14.30;13.80;;;19.50;99.90;;;;;;5017096;28;20449;-52
2021/11/19 05:39:01;;;;;;;14.60;14.10;;;19.50;99.90;;;;;;5016866;28;20760;-51
2021/11/19 05:41:28;;;;;;;14.90;14.40;;;19.50;99.90;;;;;;5021147;28;20456;-54
2021/11/19 05:43:56;;;;;;;14.67;14.17;;;19.40;99.90;;;;;;5036474;28;20456;-53
2021/11/19 05:46:27;;;;;;;14.77;14.27;;;19.30;99.90;;;;;;5036641;28;20484;-52
2021/11/19 05:48:58;;;;;;;14.87;14.30;;;19.20;99.90;;;;;;5036357;28;20543;-51
2021/11/19 05:51:26;;;;;;;13.77;13.27;;;19.20;99.90;;;;;;5036117;28;20441;-51
2021/11/19 05:53:53;;;;;;;15.47;14.97;;;19.20;99.90;;;;;;5036303;28;20451;-53
2021/11/19 05:56:23;;;;;;;13.73;13.23;;;19.20;99.90;;;;;;5035977;28;20456;-51
2021/11/19 05:58:50;;;;;;;13.90;13.47;;;19.20;99.90;;;;;;5035251;28;20448;-54
2021/11/19 06:01:19;;;;;;;13.97;13.47;;;19.20;99.90;;;;;;5035473;28;20445;-52
2021/11/19 06:03:49;;;;;;;14.67;14.17;;;19.20;99.90;;;;;;5035263;28;20440;-51
2021/11/19 06:06:17;;;;;;;14.87;14.37;;;19.30;99.90;;;;;;5034458;28;20449;-51
2021/11/19 06:08:45;;;;;;;16.00;15.40;;;19.30;99.90;;;;;;5022748;28;20484;-52
2021/11/19 06:11:14;;;;;;;15.37;14.83;;;19.40;99.90;;;;;;5022369;28;20808;-48
2021/11/19 06:13:46;;;;;;;15.23;14.73;;;19.40;99.90;;;;;;5022210;28;20489;-49
2021/11/19 06:16:16;;;;;;;15.53;14.73;;;19.50;99.90;;;;;;5021951;28;20933;-48
2021/11/19 06:18:48;;;;;;;13.40;13.00;;;19.50;99.90;;;;;;5022149;28;20448;-49
2021/11/19 06:21:19;;;;;;;14.37;13.83;;;19.50;99.90;;;;;;5021931;28;20468;-51
2021/11/19 06:23:49;;;;;;;14.10;13.60;;;19.60;99.90;;;;;;5022043;28;20452;-50
2021/11/19 06:26:19;;;;;;;15.50;15.00;;;19.60;99.90;;;;;;5021832;28;20453;-48
2021/11/19 06:29:02;;;;;;;15.03;14.50;;;19.60;99.90;;;;;;5021594;28;20499;-49
2021/11/19 06:31:29;;;;;;;15.10;14.60;;;19.70;99.90;;;;;;5021995;28;20456;-48
2021/11/19 06:33:55;;;;;;;14.60;14.10;;;19.70;99.90;;;;;;5022082;28;20456;-49
2021/11/19 06:36:22;;;;;;;14.73;14.23;;;19.70;99.90;;;;;;5021639;28;20456;-52
2021/11/19 06:38:50;;;;;;;14.83;14.33;;;19.70;99.90;;;;;;5021471;28;20441;-48
2021/11/19 06:41:19;;;;;;;14.23;13.73;;;19.70;99.90;;;;;;5021870;28;20472;-49
2021/11/19 06:43:48;;;;;;;15.10;14.50;;;19.70;99.90;;;;;;5021572;28;20452;-48
2021/11/19 06:46:16;;;;;;;13.90;13.50;;;19.80;99.90;;;;;;5021669;28;20465;-51
2021/11/19 06:48:44;;;;;;;14.83;14.30;;;19.80;99.90;;;;;;5021276;28;21029;-51
2021/11/19 06:51:11;;;;;;;14.30;13.80;;;19.70;99.90;;;;;;5021638;28;20448;-51
2021/11/19 06:53:39;;;;;;;14.83;14.33;;;19.70;99.90;;;;;;5021527;28;20838;-50
2021/11/19 06:56:06;;;;;;;14.07;13.60;;;19.60;99.90;;;;;;5021184;28;20448;-50
2021/11/19 06:58:33;;;;;;;14.23;13.73;;;19.60;99.90;;;;;;5021034;28;20905;-51
2021/11/19 07:01:01;;;;;;;14.50;14.00;;;19.60;99.90;;;;;;5021415;28;20928;-51
2021/11/19 07:03:29;;;;;;;15.13;14.63;;;19.60;99.90;;;;;;5021273;28;20484;-54
2021/11/19 07:05:56;;;;;;;15.20;14.70;;;19.60;99.90;;;;;;5021315;28;20453;-51
2021/11/19 07:08:23;;;;;;;12.60;12.20;;;19.70;99.90;;;;;;5021022;28;20957;-49
2021/11/19 07:10:52;;;;;;;12.37;12.00;;;19.60;99.90;;;;;;5020971;28;20913;-50
2021/11/19 07:13:20;;;;;;;12.97;12.57;;;19.70;99.90;;;;;;5020817;28;20460;-49
2021/11/19 07:15:47;;;;;;;12.70;12.37;;;19.70;99.90;;;;;;5020865;28;20457;-50
2021/11/19 07:18:15;;;;;;;11.50;11.10;;;19.70;99.90;;;;;;5020360;28;20480;-50
2021/11/19 07:20:43;;;;;;;11.53;11.23;;;19.70;99.90;;;;;;5020610;28;20449;-48
2021/11/19 07:23:10;;;;;;;11.83;11.53;;;19.70;99.90;;;;;;5021016;28;20445;-51
2021/11/19 07:25:39;;;;;;;11.90;11.50;;;19.70;99.90;;;;;;5020784;28;20544;-49
2021/11/19 07:28:07;;;;;;;12.70;12.20;;;19.70;99.90;;;;;;5020465;28;20473;-48
2021/11/19 07:30:36;;;;;;;11.93;11.63;;;19.80;99.90;;;;;;5020635;28;21067;-52
2021/11/19 07:33:03;;;;;;;11.40;11.10;;;19.70;99.90;;;;;;5020790;28;21017;-49
2021/11/19 07:35:31;;;;;;;12.40;12.00;;;19.70;99.90;;;;;;5020605;28;20750;-48
2021/11/19 07:37:58;;;;;;;12.00;11.60;;;19.70;99.90;;;;;;5020553;28;20988;-52
2021/11/19 07:40:27;;;;;;;12.40;12.00;;;19.70;99.90;;;;;;5020509;28;20449;-49
2021/11/19 07:42:54;;;;;;;11.70;11.40;;;19.80;99.90;;;;;;5020693;28;20452;-50
2021/11/19 07:45:22;;;;;;;14.10;13.60;;;19.70;99.90;;;;;;5020597;28;20519;-49
2021/11/19 07:47:50;;;;;;;13.00;12.50;;;19.80;99.90;;;;;;5020530;28;20473;-53
2021/11/19 07:50:23;;;;;;;11.60;11.27;;;19.70;99.90;;;;;;5020252;28;20989;-49
2021/11/19 07:52:51;;;;;;;12.70;12.30;;;19.80;99.90;;;;;;5020250;28;20449;-51
2021/11/19 07:55:18;;;;;;;12.33;12.03;;;19.90;99.90;;;;;;5020361;28;20453;-48
2021/11/19 07:57:45;;;;;;;13.73;13.23;;;19.80;99.90;;;;;;5020318;28;21102;-50
2021/11/19 08:00:15;;;;;;;12.60;12.20;;;19.90;99.90;;;;;;5020141;28;20455;-48
2021/11/19 08:02:42;;;;;;;13.20;12.70;;;19.90;99.90;;;;;;5020197;28;20461;-49
2021/11/19 08:05:09;;;;;;;13.77;13.17;;;19.80;99.90;;;;;;5020373;28;20445;-48
2021/11/19 08:07:36;;;;;;;12.63;12.10;;;19.80;99.90;;;;;;5020093;28;20469;-54
2021/11/19 08:10:05;;;;;;;11.40;11.10;;;19.80;99.90;;;;;;5019962;28;20496;-50
2021/11/19 08:12:32;;;;;;;12.60;12.20;;;19.80;99.90;;;;;;5020140;28;20890;-49
2021/11/19 08:14:59;;;;;;;13.53;13.13;;;19.80;99.90;;;;;;5020241;28;20453;-49
2021/11/19 08:17:29;;;;;;;12.87;12.47;;;19.80;99.90;;;;;;5019969;28;20816;-50
2021/11/19 08:19:56;;;;;;;13.93;13.43;;;19.90;99.90;;;;;;5019868;28;20800;-49
2021/11/19 08:22:23;;;;;;;12.63;12.23;;;19.90;99.90;;;;;;5020058;28;21303;-50
2021/11/19 08:24:51;;;;;;;13.37;12.97;;;19.80;99.90;;;;;;5019656;28;20535;-49
2021/11/19 08:27:22;;;;;;;12.20;11.80;;;19.80;99.90;;;;;;5019387;28;20449;-51
2021/11/19 08:29:53;;;;;;;15.00;14.37;;;19.90;99.90;;;;;;5018904;28;20232;-49
2021/11/19 08:32:22;;;;;;;12.73;12.40;;;19.80;99.90;;;;;;5019689;28;20453;-49
2021/11/19 08:34:49;;;;;;;12.63;12.23;;;19.90;99.90;;;;;;5019602;28;20951;-52
2021/11/19 08:37:18;;;;;;;14.07;13.47;;;19.90;99.90;;;;;;5019644;28;20469;-52
2021/11/19 08:39:45;;;;;;;14.10;13.60;;;19.80;99.90;;;;;;5019492;28;20456;-50
2021/11/19 08:42:13;;;;;;;13.70;13.27;;;19.80;99.90;;;;;;5019411;28;20445;-51
2021/11/19 08:44:43;;;;;;;12.27;11.97;;;19.80;99.90;;;;;;5019497;28;21290;-49
2021/11/19 08:47:11;;;;;;;13.30;12.90;;;19.90;99.90;;;;;;5019421;28;20469;-49
2021/11/19 08:49:39;;;;;;;12.93;12.53;;;19.90;99.90;;;;;;5018853;28;20511;-49
2021/11/19 08:52:08;;;;;;;13.23;12.83;;;19.90;99.90;;;;;;5019482;28;20668;-48
2021/11/19 08:54:35;;;;;;;12.47;12.07;;;19.90;99.90;;;;;;5019445;28;20451;-49
2021/11/19 08:57:10;;;;;;;11.93;11.63;;;19.90;99.90;;;;;;5019274;28;20469;-49
2021/11/19 08:59:38;;;;;;;13.20;12.70;;;19.90;99.90;;;;;;5019442;28;20901;-52
2021/11/19 09:02:09;;;;;;;14.47;13.87;;;19.90;99.90;;;;;;5018786;28;20442;-49
2021/11/19 09:04:36;;;;;;;12.27;11.97;;;19.90;99.90;;;;;;5014207;28;20453;-48
2021/11/19 09:07:04;;;;;;;11.10;10.80;;;19.90;99.90;;;;;;5019383;28;20477;-51
2021/11/19 09:09:31;;;;;;;12.67;12.27;;;19.90;99.90;;;;;;5019162;28;20484;-49
2021/11/19 09:11:59;;;;;;;13.30;12.90;;;19.90;99.90;;;;;;5019377;28;21191;-56
2021/11/19 09:14:26;;;;;;;20.07;18.87;;;19.90;99.90;;;;;;5019432;28;20445;-52
2021/11/19 09:17:02;;;;;;;20.50;19.13;;;19.70;99.90;;;;;;5019122;28;20523;-52
2021/11/19 09:19:37;;;;;;;21.73;20.43;;;19.00;99.90;;;;;;5019059;28;20451;-49
2021/11/19 09:22:19;;;;;;;21.37;20.07;;;18.60;99.90;;;;;;5019438;28;20448;-49
2021/11/19 09:24:46;;;;;;;21.83;20.43;;;17.90;99.90;;;;;;5018914;28;20449;-48
2021/11/19 09:27:17;;;;;;;21.43;19.93;;;17.60;99.90;;;;;;5019007;28;20485;-48
2021/11/19 09:29:46;;;;;;;22.07;20.67;;;17.50;99.90;;;;;;5018908;28;21061;-49
2021/11/19 09:32:14;;;;;;;21.03;19.73;;;17.30;99.90;;;;;;5018943;28;20452;-58
2021/11/19 09:34:45;;;;;;;16.27;15.57;;;17.30;99.90;;;;;;5019197;28;20457;-54
2021/11/19 09:37:15;;;;;;;14.87;14.27;;;18.10;99.90;;;;;;5019153;28;20929;-53
2021/11/19 09:39:43;;;;;;;14.37;13.80;;;18.60;99.90;;;;;;5018858;28;20504;-51
2021/11/19 09:42:19;;;;;;;14.33;13.83;;;19.00;99.90;;;;;;5021929;28;20893;-49
2021/11/19 09:45:37;;;;;;;14.60;14.00;;;19.10;99.90;;;;;;5022703;28;20904;-50
2021/11/19 09:48:38;;;;;;;13.13;12.73;;;19.30;99.90;;;;;;4960934;28;20490;-47
2021/11/19 09:51:53;;;;;;;13.97;13.10;;;19.40;99.90;;;;;;4941381;29;20591;-48
2021/11/19 09:55:04;;;;;;;13.90;13.40;;;19.60;99.90;;;;;;5002906;28;20449;-51
2021/11/19 09:58:06;;;;;;;14.60;14.00;;;19.70;99.90;;;;;;5007824;28;20491;-52
2021/11/19 10:00:45;;;;;;;14.27;13.77;;;19.60;99.90;;;;;;5022621;28;20451;-59
2021/11/19 10:03:57;;;;;;;14.37;13.83;;;19.70;99.90;;;;;;5022395;28;20457;-49
2021/11/19 10:06:30;;;;;;;14.47;13.77;;;19.80;99.90;;;;;;4992123;28;20485;-49
2021/11/19 10:09:00;;;;;;;14.20;13.70;;;19.80;99.90;;;;;;5022063;28;20456;-51
2021/11/19 10:11:35;;;;;;;14.33;13.57;;;19.80;99.90;;;;;;5022233;28;20491;-50
2021/11/19 10:14:42;;;;;;;13.30;12.90;;;19.80;99.90;;;;;;5022362;28;20463;-49
2021/11/19 10:17:27;;;;;;;14.63;13.50;;;19.90;99.90;;;;;;5021865;28;20473;-49
2021/11/19 10:19:58;;;;;;;13.30;12.90;;;19.90;99.90;;;;;;5021962;28;21135;-52
2021/11/19 10:22:30;;;;;;;14.20;13.70;;;19.90;99.90;;;;;;5021797;28;20821;-52
2021/11/19 10:25:06;;;;;;;14.63;14.13;;;19.90;99.90;;;;;;5021908;28;20897;-50
2021/11/19 10:27:37;;;;;;;12.83;12.43;;;20.00;99.90;;;;;;5022420;28;20480;-51
2021/11/19 10:30:10;;;;;;;12.00;11.70;;;20.00;99.90;;;;;;5021816;28;20488;-57
2021/11/19 10:32:38;;;;;;;12.30;11.90;;;20.00;99.90;;;;;;5021962;28;20463;-50
2021/11/19 10:35:18;;;;;;;14.50;13.90;;;20.00;99.90;;;;;;5022201;28;20448;-49
2021/11/19 10:38:13;;;;;;;13.23;12.83;;;20.00;99.90;;;;;;5021740;28;20472;-50
2021/11/19 10:41:24;;;;;;;14.73;14.23;;;20.00;99.90;;;;;;5021870;28;20453;-49
2021/11/19 10:44:57;;;;;;;13.20;12.80;;;20.00;99.90;;;;;;5020296;28;20460;-51
2021/11/19 10:47:48;;;;;;;14.13;13.73;;;20.00;99.90;;;;;;4902112;29;20469;-49
2021/11/19 10:51:03;;;;;;;14.50;14.00;;;20.10;99.90;;;;;;4902062;29;21160;-49
2021/11/19 10:54:14;;;;;;;13.63;13.17;;;20.10;99.90;;;;;;5015842;28;20788;-52
2021/11/19 10:56:51;;;;;;;14.07;13.57;;;20.00;99.90;;;;;;5002044;28;20472;-52
2021/11/19 10:59:38;;;;;;;13.40;12.90;;;20.00;99.90;;;;;;5021080;28;20535;-52
2021/11/19 11:02:36;;;;;;;13.10;12.70;;;20.00;99.90;;;;;;5021510;28;20441;-50
2021/11/19 11:05:25;;;;;;;13.70;13.20;;;20.00;99.90;;;;;;5021368;28;20441;-56
2021/11/19 11:08:10;;;;;;;13.97;13.37;;;20.00;99.90;;;;;;5021355;28;20475;-50
2021/11/19 11:10:43;;;;;;;12.17;11.87;;;20.10;99.90;;;;;;5021414;28;20492;-50
2021/11/19 11:13:28;;;;;;;23.13;20.73;;;20.10;99.90;;;;;;5020750;28;20962;-52
2021/11/19 11:15:58;;;;;;;23.10;20.67;;;20.00;99.90;;;;;;5021185;28;20441;-50
2021/11/19 11:18:27;;;;;;;21.57;19.60;;;20.10;99.90;;;;;;5020986;28;20465;-51
2021/11/19 11:21:08;;;;;;;20.30;18.60;;;20.20;99.90;;;;;;5020608;28;20927;-52
2021/11/19 11:23:38;;;;;;;19.17;17.70;;;20.10;99.90;;;;;;5021193;28;20461;-54
2021/11/19 11:26:12;;;;;;;17.60;16.30;;;20.20;99.90;;;;;;5020806;28;20449;-52
2021/11/19 11:28:47;;;;;;;17.27;15.57;;;20.20;99.90;;;;;;5020552;28;20484;-50
2021/11/19 11:31:25;;;;;;;18.80;17.40;;;20.10;99.90;;;;;;5020853;28;20488;-52
2021/11/19 11:33:55;;;;;;;17.43;16.33;;;20.10;99.90;;;;;;5020820;28;20445;-52
2021/11/19 11:36:30;;;;;;;16.87;15.90;;;20.10;99.90;;;;;;5005802;28;20464;-53
2021/11/19 11:39:08;;;;;;;18.90;17.40;;;20.10;99.90;;;;;;5021060;28;20905;-52
2021/11/19 11:41:53;;;;;;;17.50;16.43;;;20.10;99.90;;;;;;5020828;28;20472;-54
2021/11/19 11:44:23;;;;;;;16.00;14.83;;;20.10;99.90;;;;;;5020894;28;20456;-51
2021/11/19 11:46:58;;;;;;;16.00;14.87;;;21.00;99.90;;;;;;5020170;28;20495;-50
2021/11/19 11:49:45;;;;;;;16.70;15.80;;;21.30;99.70;;;;;;5020407;28;20453;-53
2021/11/19 11:52:20;;;;;;;15.80;15.00;;;21.40;99.40;;;;;;5020465;28;20445;-53
2021/11/19 11:55:00;;;;;;;15.60;15.00;;;22.10;98.20;;;;;;5020444;28;20472;-55
2021/11/19 11:57:44;;;;;;;15.50;14.70;;;22.60;95.90;;;;;;5020257;28;20492;-53
2021/11/19 12:00:17;;;;;;;15.70;15.00;;;22.80;94.70;;;;;;5020292;28;20445;-53
2021/11/19 12:02:54;;;;;;;14.83;14.33;;;23.00;93.70;;;;;;5020320;28;20529;-52
2021/11/19 12:05:37;;;;;;;16.77;16.13;;;23.10;92.90;;;;;;5020281;28;20455;-51
2021/11/19 12:08:39;;;;;;;15.93;14.93;;;23.10;92.50;;;;;;5020180;28;20495;-54
2021/11/19 12:11:48;;;;;;;16.03;15.33;;;23.20;92.30;;;;;;5017931;28;20480;-53
2021/11/19 12:14:24;;;;;;;15.97;15.23;;;23.10;91.60;;;;;;5020266;28;20984;-53
2021/11/19 12:17:00;;;;;;;15.50;14.70;;;23.20;91.30;;;;;;5020077;28;20797;-54
2021/11/19 12:19:39;;;;;;;16.07;15.00;;;23.00;91.60;;;;;;5019861;28;20535;-53
2021/11/19 12:22:11;;;;;;;14.77;14.07;;;22.90;91.40;;;;;;5020320;28;20833;-55
2021/11/19 12:24:43;;;;;;;14.60;13.90;;;22.90;91.60;;;;;;5019881;28;20537;-59
2021/11/19 12:27:26;;;;;;;14.73;14.13;;;23.40;91.30;;;;;;5019613;28;20662;-56
2021/11/19 12:30:03;;;;;;;16.00;15.30;;;24.00;89.20;;;;;;5019475;28;20993;-52
2021/11/19 12:32:41;;;;;;;15.97;15.07;;;24.50;85.40;;;;;;5019901;28;20445;-51
2021/11/19 12:35:14;;;;;;;14.10;13.50;;;24.60;83.10;;;;;;5019588;28;20461;-56
2021/11/19 12:37:58;;;;;;;15.10;14.40;;;24.70;81.70;;;;;;5019707;28;20468;-53
2021/11/19 12:40:31;;;;;;;15.27;14.67;;;24.70;80.30;;;;;;5019612;28;20897;-50
2021/11/19 12:43:08;;;;;;;14.37;13.77;;;24.70;79.40;;;;;;5019347;28;21089;-51
2021/11/19 12:45:41;;;;;;;14.50;13.90;;;24.60;79.20;;;;;;5019830;28;20922;-51
2021/11/19 12:48:37;;;;;;;14.43;13.80;;;24.50;79.40;;;;;;5019418;28;20550;-54
2021/11/19 12:51:26;;;;;;;15.40;14.80;;;24.50;80.00;;;;;;5019447;28;20860;-55
2021/11/19 12:54:25;;;;;;;16.20;15.50;;;24.50;79.00;;;;;;4996941;28;20499;-52